Time;durP1;ratioP1;P1;durP2;ratioP2;P2;SDS_P1;SDS_P2;PMS_P1;PMS_P2;Temp;Humidity;BMP_temperature;BMP_pressure;BME280_temperature;BME280_humidity;BME280_pressure;Samples;Min_cycle;Max_cycle;Signal;HPM_P1;HPM_P2
2022/05/03 00:01:17;;;;;;;;;40.25;36.25;;;;;14.79;48.74;101215.41;5095666;27;44980;-94
2022/05/03 00:03:52;;;;;;;;;42.00;35.25;;;;;14.60;48.61;101184.94;5095236;28;45102;-94
2022/05/03 00:06:34;;;;;;;;;48.25;39.75;;;;;14.54;48.79;101176.84;5095228;27;45591;-91
2022/05/03 00:09:07;;;;;;;;;43.00;36.75;;;;;14.18;48.69;101119.47;5095379;27;44935;-92
2022/05/03 00:11:38;;;;;;;;;44.75;35.75;;;;;14.29;48.76;101138.28;5095096;28;44953;-94
2022/05/03 00:14:28;;;;;;;;;46.25;38.50;;;;;14.65;48.99;101201.81;5094614;27;45908;-94
2022/05/03 00:16:54;;;;;;;;;41.00;35.50;;;;;14.16;49.05;101121.19;5094857;27;44966;-84
2022/05/03 00:19:20;;;;;;;;;48.25;37.75;;;;;14.25;49.07;101136.41;5093386;27;44908;-81
2022/05/03 00:21:45;;;;;;;;;46.50;38.50;;;;;14.60;49.04;101191.13;5094370;27;44897;-81
2022/05/03 00:24:11;;;;;;;;;43.50;37.25;;;;;14.49;49.13;101168.78;5093917;28;45450;-94
2022/05/03 00:26:37;;;;;;;;;45.00;37.75;;;;;14.12;49.32;101120.19;5094024;28;45403;-76
2022/05/03 00:29:03;;;;;;;;;46.75;37.25;;;;;14.16;49.30;101126.47;5094299;27;45015;-78
2022/05/03 00:31:29;;;;;;;;;43.25;37.25;;;;;13.98;49.09;101095.16;5093904;27;45095;-75
2022/05/03 00:33:55;;;;;;;;;40.25;34.75;;;;;14.20;49.20;101149.50;5093487;27;45241;-89
2022/05/03 00:36:21;;;;;;;;;40.00;35.50;;;;;13.89;49.27;101090.56;5093572;27;45446;-91
2022/05/03 00:38:47;;;;;;;;;47.00;39.00;;;;;13.96;49.40;101101.28;5093469;27;45107;-79
2022/05/03 00:41:36;;;;;;;;;44.00;37.00;;;;;13.89;49.44;101090.56;5093487;27;44975;-82
2022/05/03 00:47:13;;;;;;;;;43.25;36.75;;;;;14.05;49.48;101120.91;5093708;27;45477;-79
2022/05/03 00:50:23;;;;;;;;;42.75;36.25;;;;;13.98;49.56;101111.00;5093212;27;45158;-75
2022/05/03 00:53:09;;;;;;;;;43.50;37.25;;;;;14.35;49.49;101181.63;5083062;27;45137;-79
2022/05/03 00:55:34;;;;;;;;;46.50;38.00;;;;;14.32;49.80;101180.63;5093075;27;46005;-75
2022/05/03 00:58:27;;;;;;;;;40.33;34.00;;;;;14.32;49.81;101181.53;5093889;28;45152;-81
2022/05/03 01:00:57;;;;;;;;;42.25;35.75;;;;;13.88;49.88;101107.22;5092046;27;45354;-91
2022/05/03 01:03:31;;;;;;;;;42.00;35.00;;;;;13.92;49.99;101116.13;5093650;27;45142;-76
2022/05/03 01:06:18;;;;;;;;;41.75;35.00;;;;;14.27;49.79;101177.88;5092897;27;45691;-76
2022/05/03 01:08:49;;;;;;;;;40.25;35.00;;;;;13.79;49.77;101093.81;5092449;27;45586;-79
2022/05/03 01:11:39;;;;;;;;;45.50;36.50;;;;;14.25;49.86;101184.00;5093504;27;45232;-80
2022/05/03 01:14:29;;;;;;;;;41.00;34.75;;;;;13.75;50.11;101094.56;5093231;27;45005;-82
2022/05/03 01:16:59;;;;;;;;;44.25;38.00;;;;;13.81;50.28;101110.56;5090937;27;45126;-85
2022/05/03 01:19:52;;;;;;;;;46.25;36.00;;;;;14.24;50.31;101177.81;5093098;27;45535;-86
2022/05/03 01:22:23;;;;;;;;;48.00;37.75;;;;;14.25;50.22;101176.94;5093224;27;45293;-83
2022/05/03 01:25:30;;;;;;;;;43.00;36.00;;;;;14.29;50.04;101176.19;5092842;28;45309;-75
2022/05/03 01:27:55;;;;;;;;;42.50;37.00;;;;;14.31;50.03;101173.56;5092303;27;45736;-78
2022/05/03 01:30:21;;;;;;;;;43.67;36.00;;;;;14.18;49.99;101151.19;5093073;28;44912;-83
2022/05/03 01:32:50;;;;;;;;;47.50;38.75;;;;;13.87;49.79;101091.34;5093587;27;45277;-79
2022/05/03 01:35:21;;;;;;;;;45.75;37.75;;;;;14.37;49.78;101168.44;5092778;27;44863;-78
2022/05/03 01:37:57;;;;;;;;;44.00;38.00;;;;;14.39;49.65;101162.34;5093253;27;45308;-89
2022/05/03 01:40:43;;;;;;;;;50.00;41.50;;;;;14.40;49.61;101163.22;5093806;27;44981;-77
2022/05/03 01:43:31;;;;;;;;;45.25;36.50;;;;;14.28;49.64;101137.34;5093556;27;45251;-84
2022/05/03 01:46:15;;;;;;;;;48.75;40.00;;;;;14.39;49.81;101157.06;5091692;28;45398;-88
2022/05/03 01:52:35;;;;;;;;;45.50;38.50;;;;;14.40;49.55;101153.53;5048095;27;45249;-92
2022/05/03 01:55:26;;;;;;;;;40.75;36.50;;;;;14.40;49.71;101156.19;5092991;27;45095;-91
2022/05/03 01:58:07;;;;;;;;;46.25;38.00;;;;;14.38;49.69;101149.06;5092207;28;45064;-92
2022/05/03 02:00:36;;;;;;;;;42.00;36.00;;;;;14.28;49.58;101157.59;5093005;27;45717;-74
2022/05/03 02:03:04;;;;;;;;;42.00;37.00;;;;;14.32;49.72;101148.91;5092434;28;45105;-79
2022/05/03 02:05:35;;;;;;;;;44.50;37.50;;;;;14.28;49.59;101150.56;5092608;27;45044;-93
2022/05/03 02:08:01;;;;;;;;;47.00;38.25;;;;;14.23;49.78;101148.66;5094072;27;44873;-93
2022/05/03 02:10:44;;;;;;;;;44.00;35.75;;;;;13.63;49.80;101055.47;5093397;27;45383;-94
2022/05/03 02:16:34;;;;;;;;;37.50;33.50;;;;;14.02;49.95;101136.69;5093914;28;45246;-94
2022/05/03 02:19:12;;;;;;;;;46.75;38.00;;;;;13.97;50.18;101132.13;5093601;27;44930;-94
2022/05/03 02:22:21;;;;;;;;;38.50;35.00;;;;;14.04;50.17;101157.84;5093600;27;46166;-92
2022/05/03 02:25:14;;;;;;;;;41.50;36.00;;;;;14.01;50.13;101155.16;5071390;28;45389;-94
2022/05/03 02:27:46;;;;;;;;;43.50;37.25;;;;;13.99;50.20;101155.09;5093850;28;45237;-95
2022/05/03 02:30:14;;;;;;;;;44.00;35.00;;;;;13.66;50.37;101103.13;5092629;27;45208;-93
2022/05/03 02:33:04;;;;;;;;;40.75;35.50;;;;;13.99;50.29;101159.47;5093440;27;46034;-92
2022/05/03 02:35:34;;;;;;;;;42.00;35.75;;;;;13.77;50.38;101123.66;5092583;27;45052;-92
2022/05/03 02:38:05;;;;;;;;;40.50;35.75;;;;;13.91;50.36;101146.97;5093522;27;45191;-94
2022/05/03 02:40:32;;;;;;;;;45.00;36.00;;;;;13.98;50.19;101166.50;5093164;27;45114;-95
2022/05/03 02:42:58;;;;;;;;;40.75;35.00;;;;;13.90;50.17;101142.53;5093363;27;45810;-95
2022/05/03 02:45:24;;;;;;;;;41.00;36.00;;;;;13.98;50.30;101157.69;5092968;27;44956;-90
2022/05/03 02:48:06;;;;;;;;;35.00;31.75;;;;;13.97;50.18;101155.91;5093514;28;45115;-93
2022/05/03 02:50:51;;;;;;;;;41.25;35.75;;;;;13.98;50.10;101158.59;5093067;28;45206;-93
2022/05/03 02:53:42;;;;;;;;;40.25;34.00;;;;;13.61;49.87;101088.91;5092105;27;47632;-93
2022/05/03 02:56:24;;;;;;;;;45.00;35.25;;;;;13.97;50.17;101154.16;5092693;28;45558;-93
2022/05/03 02:58:49;;;;;;;;;40.25;36.00;;;;;13.96;49.97;101156.78;5093049;27;44892;-93
2022/05/03 03:01:49;;;;;;;;;39.67;34.67;;;;;13.48;50.10;101072.66;5093250;28;45029;-93
2022/05/03 03:04:41;;;;;;;;;40.00;35.00;;;;;13.48;49.97;101085.88;5092977;27;45962;-95
2022/05/03 03:07:07;;;;;;;;;42.25;35.00;;;;;13.83;50.27;101139.66;5093225;27;45397;-94
2022/05/03 03:09:43;;;;;;;;;39.75;35.00;;;;;13.93;50.23;101149.63;5092725;27;45102;-95
2022/05/03 03:12:35;;;;;;;;;35.50;33.50;;;;;13.93;50.30;101147.00;5093370;27;45031;-93
2022/05/03 03:15:07;;;;;;;;;38.00;33.75;;;;;13.73;50.38;101113.84;5092847;28;45649;-95
2022/05/03 03:17:47;;;;;;;;;38.50;34.00;;;;;13.91;50.21;101149.59;5093530;27;45013;-95
2022/05/03 03:20:13;;;;;;;;;39.50;34.00;;;;;13.61;50.54;101098.56;5092961;27;45161;-92
2022/05/03 03:22:44;;;;;;;;;38.50;34.00;;;;;13.86;50.21;101140.66;5093162;28;45034;-95
2022/05/03 03:25:12;;;;;;;;;36.00;33.00;;;;;13.50;50.43;101079.78;5092860;27;45718;-95
2022/05/03 03:27:39;;;;;;;;;41.00;35.25;;;;;13.52;50.15;101088.63;5091195;27;45359;-94
2022/05/03 03:30:08;;;;;;;;;39.75;32.75;;;;;13.87;50.25;101150.38;5093040;27;45145;-94
2022/05/03 03:32:37;;;;;;;;;30.00;28.50;;;;;13.60;50.15;101100.31;5094857;27;45284;-93
2022/05/03 03:35:02;;;;;;;;;35.75;32.50;;;;;13.49;50.26;101088.53;5095977;27;45377;-94
2022/05/03 03:37:31;;;;;;;;;43.50;35.75;;;;;13.86;50.21;101151.22;5094839;28;45266;-94
2022/05/03 03:39:57;;;;;;;;;40.50;34.50;;;;;13.87;50.20;101154.75;5096470;27;45314;-93
2022/05/03 03:42:26;;;;;;;;;39.50;34.00;;;;;13.66;50.27;101108.41;5076464;27;45093;-93
2022/05/03 03:44:52;;;;;;;;;35.75;32.00;;;;;13.34;50.30;101057.31;5075593;28;45202;-94
2022/05/03 03:47:17;;;;;;;;;36.25;33.50;;;;;13.40;50.09;101073.34;5075306;28;45321;-95
2022/05/03 03:49:43;;;;;;;;;37.50;33.50;;;;;13.31;49.98;101057.25;5075654;28;44985;-94
2022/05/03 03:52:10;;;;;;;;;41.25;35.00;;;;;13.80;50.02;101142.25;5075414;28;45044;-92
2022/05/03 03:54:36;;;;;;;;;41.25;35.00;;;;;13.78;50.10;101142.19;5075053;28;45633;-84
2022/05/03 03:57:04;;;;;;;;;41.00;34.25;;;;;13.47;49.97;101099.91;5075444;28;45310;-89
2022/05/03 03:59:31;;;;;;;;;39.50;32.75;;;;;13.73;50.05;101141.16;5075513;28;45137;-94
2022/05/03 04:02:01;;;;;;;;;41.00;35.00;;;;;13.37;50.19;101075.00;5075533;28;45233;-86
2022/05/03 04:04:32;;;;;;;;;34.00;31.75;;;;;13.30;50.26;101065.09;5074399;28;45234;-87
2022/05/03 04:06:59;;;;;;;;;39.50;32.75;;;;;13.77;50.26;101140.41;5075568;28;45072;-94
2022/05/03 04:09:24;;;;;;;;;35.25;32.00;;;;;13.36;49.98;101063.56;5074960;28;45124;-94
2022/05/03 04:11:50;;;;;;;;;39.25;34.00;;;;;13.18;50.13;101034.84;5075245;28;45049;-94
2022/05/03 04:14:15;;;;;;;;;39.00;34.50;;;;;13.34;50.07;101057.31;5075249;28;45778;-92
2022/05/03 04:16:41;;;;;;;;;39.25;34.50;;;;;13.45;50.07;101076.13;5074703;28;45220;-87
2022/05/03 04:19:07;;;;;;;;;43.25;36.25;;;;;13.84;50.32;101141.44;5074459;28;44997;-87
2022/05/03 04:21:33;;;;;;;;;40.00;34.50;;;;;13.29;50.10;101048.38;5090105;28;45292;-79
2022/05/03 04:23:59;;;;;;;;;43.75;37.00;;;;;13.84;50.07;101152.03;5074114;28;45709;-78
2022/05/03 04:26:24;;;;;;;;;34.00;31.25;;;;;13.26;50.31;101056.22;5079757;27;44890;-82
2022/05/03 04:28:50;;;;;;;;;42.00;35.00;;;;;13.80;50.34;101148.41;5077889;28;44903;-93
2022/05/03 04:31:15;;;;;;;;;34.00;30.67;;;;;13.77;50.53;101158.88;5075332;28;45015;-91
2022/05/03 04:33:40;;;;;;;;;39.25;35.25;;;;;13.75;50.43;101154.44;5079291;28;45497;-93
2022/05/03 04:36:06;;;;;;;;;42.75;37.00;;;;;13.73;50.52;101151.72;5074099;28;51846;-93
2022/05/03 04:38:31;;;;;;;;;39.00;34.75;;;;;13.21;50.45;101065.72;5090327;28;45172;-92
2022/05/03 04:41:01;;;;;;;;;43.00;34.50;;;;;13.33;50.53;101086.31;5074365;28;45063;-87
2022/05/03 04:43:27;;;;;;;;;38.75;34.75;;;;;13.29;50.61;101079.16;5074650;28;45683;-94
2022/05/03 04:45:53;;;;;;;;;35.25;29.75;;;;;13.55;50.41;101136.28;5074204;28;45367;-88
2022/05/03 04:48:19;;;;;;;;;40.25;33.75;;;;;13.61;50.86;101146.09;5074747;28;44932;-94
2022/05/03 04:50:45;;;;;;;;;43.50;36.25;;;;;13.18;50.42;101074.44;5074541;28;44937;-84
2022/05/03 04:53:10;;;;;;;;;39.50;34.25;;;;;13.16;50.88;101072.63;5073764;28;45110;-80
2022/05/03 04:55:39;;;;;;;;;37.25;33.75;;;;;13.11;50.90;101068.94;5073327;28;45058;-76
2022/05/03 04:58:05;;;;;;;;;37.25;33.50;;;;;13.07;50.65;101067.06;5074218;28;45429;-94
2022/05/03 05:00:30;;;;;;;;;46.00;35.00;;;;;13.20;51.02;101087.69;5074378;28;45187;-94
2022/05/03 05:02:56;;;;;;;;;46.75;37.50;;;;;13.08;50.94;101071.47;5083273;28;45730;-94
2022/05/03 05:05:21;;;;;;;;;42.00;36.50;;;;;13.27;50.64;101094.06;5073870;28;45212;-93
2022/05/03 05:07:47;;;;;;;;;39.75;35.00;;;;;13.07;50.82;101052.13;5074222;28;44953;-86
2022/05/03 05:10:24;;;;;;;;;42.25;36.75;;;;;13.20;50.88;101057.75;5074556;28;45513;-93
2022/05/03 05:12:50;;;;;;;;;37.75;33.25;;;;;13.56;50.82;101121.31;5073109;28;47095;-93
2022/05/03 05:15:16;;;;;;;;;38.25;33.50;;;;;13.24;50.90;101064.94;5073659;28;45044;-95
2022/05/03 05:17:42;;;;;;;;;39.00;34.75;;;;;13.38;50.82;101093.50;5090002;28;45293;-94
2022/05/03 05:20:07;;;;;;;;;46.25;35.50;;;;;13.27;50.75;101075.59;5093578;28;44884;-88
2022/05/03 05:22:33;;;;;;;;;38.00;33.75;;;;;13.23;50.61;101079.00;5076598;28;45682;-92
2022/05/03 05:24:58;;;;;;;;;37.75;35.00;;;;;13.67;50.92;101146.28;5094598;27;45149;-93
2022/05/03 05:27:23;;;;;;;;;41.00;34.33;;;;;13.84;50.70;101166.16;5087999;27;45303;-93
2022/05/03 05:29:49;;;;;;;;;41.50;35.75;;;;;13.36;50.83;101082.03;5075423;28;45110;-79
2022/05/03 05:32:14;;;;;;;;;40.50;35.00;;;;;13.87;50.62;101173.25;5084894;28;45928;-93
2022/05/03 05:34:39;;;;;;;;;43.33;36.67;;;;;13.49;50.68;101103.50;5087778;27;45043;-93
2022/05/03 05:37:05;;;;;;;;;40.67;35.00;;;;;13.39;50.64;101097.94;5073852;28;44908;-94
2022/05/03 05:39:31;;;;;;;;;42.00;34.75;;;;;13.45;50.46;101112.16;5073533;28;45232;-91
2022/05/03 05:41:58;;;;;;;;;44.25;35.00;;;;;13.33;50.26;101089.84;5075149;28;45631;-82
2022/05/03 05:44:24;;;;;;;;;37.00;31.75;;;;;13.66;50.45;101148.03;5084031;28;45306;-94
2022/05/03 05:46:52;;;;;;;;;43.25;35.50;;;;;13.86;50.56;101187.31;5075895;28;45070;-90
2022/05/03 05:49:17;;;;;;;;;37.25;33.25;;;;;13.30;50.67;101091.50;5073658;28;44930;-87
2022/05/03 05:51:47;;;;;;;;;40.00;35.50;;;;;13.71;50.33;101161.38;5082948;27;46690;-74
2022/05/03 05:54:13;;;;;;;;;35.75;33.00;;;;;13.82;50.76;101182.81;5087039;27;45209;-92
2022/05/03 05:56:41;;;;;;;;;43.00;36.75;;;;;13.60;50.66;101132.00;5083556;28;45100;-93
2022/05/03 05:59:06;;;;;;;;;44.75;36.75;;;;;13.64;50.70;101114.47;5086396;27;45412;-94
2022/05/03 06:01:39;;;;;;;;;37.50;32.50;;;;;14.11;50.42;101173.03;5082585;27;45777;-84
2022/05/03 06:04:05;;;;;;;;;38.00;35.00;;;;;13.79;50.46;101104.38;5083482;28;45652;-94
2022/05/03 06:06:32;;;;;;;;;40.00;34.25;;;;;14.34;50.10;101193.06;5081144;27;45240;-94
2022/05/03 06:09:02;;;;;;;;;40.75;35.00;;;;;13.77;50.12;101103.41;5083522;28;45181;-86
2022/05/03 06:11:29;;;;;;;;;37.75;34.00;;;;;14.29;50.34;101197.34;5079674;27;45496;-90
2022/05/03 06:13:54;;;;;;;;;47.50;37.50;;;;;14.25;50.31;101205.13;5083289;27;45313;-88
2022/05/03 06:16:20;;;;;;;;;39.50;35.75;;;;;13.91;50.58;101139.03;5079028;27;46343;-93
2022/05/03 06:18:46;;;;;;;;;42.50;35.25;;;;;13.84;50.42;101129.16;5086883;27;45102;-82
2022/05/03 06:21:11;;;;;;;;;44.25;38.00;;;;;14.28;50.56;101199.91;5073086;27;46481;-76
2022/05/03 06:23:37;;;;;;;;;37.75;34.00;;;;;14.06;50.20;101158.81;5068997;28;45103;-79
2022/05/03 06:26:09;;;;;;;;;41.50;36.00;;;;;14.01;50.10;101140.19;5077180;27;45024;-79
2022/05/03 06:28:34;;;;;;;;;38.00;34.00;;;;;13.86;50.32;101113.34;5111594;27;45195;-80
2022/05/03 06:31:01;;;;;;;;;46.75;37.50;;;;;14.12;50.10;101153.69;5095088;27;45053;-76
2022/05/03 06:33:26;;;;;;;;;39.50;34.50;;;;;14.49;50.24;101208.47;5091318;27;45045;-77
2022/05/03 06:35:52;;;;;;;;;44.00;36.00;;;;;14.17;50.22;101141.47;5090629;27;45539;-77
2022/05/03 06:38:17;;;;;;;;;44.25;37.50;;;;;14.61;50.14;101210.53;5088723;27;45110;-75
2022/05/03 06:40:43;;;;;;;;;44.00;38.00;;;;;14.69;49.85;101207.22;5089987;27;45983;-76
2022/05/03 06:43:09;;;;;;;;;44.25;35.75;;;;;14.81;49.74;101206.63;5090506;27;45170;-87
2022/05/03 06:45:34;;;;;;;;;39.75;34.75;;;;;14.43;49.71;101135.13;5090426;27;45183;-78
2022/05/03 06:48:06;;;;;;;;;44.50;37.00;;;;;14.47;49.60;101125.50;5111188;27;45429;-78
2022/05/03 06:50:31;;;;;;;;;39.25;34.75;;;;;14.40;49.29;101115.63;5096316;27;45929;-77
2022/05/03 06:52:57;;;;;;;;;39.50;34.50;;;;;14.57;49.19;101140.75;5088812;27;45164;-91
2022/05/03 06:55:23;;;;;;;;;47.50;36.00;;;;;14.67;49.51;101166.59;5091538;27;44995;-93
2022/05/03 06:57:49;;;;;;;;;46.25;37.00;;;;;14.81;49.56;101188.09;5088972;27;45230;-77
2022/05/03 07:00:16;;;;;;;;;42.75;36.75;;;;;14.54;49.53;101137.19;5091575;28;45953;-92
2022/05/03 07:02:44;;;;;;;;;38.75;33.75;;;;;14.83;49.72;101212.88;5092075;27;45533;-89
2022/05/03 07:05:09;;;;;;;;;44.00;35.75;;;;;14.80;49.75;101207.47;5086846;27;44939;-92
2022/05/03 07:07:35;;;;;;;;;41.00;35.50;;;;;14.81;49.72;101213.66;5076614;27;45121;-82
2022/05/03 07:10:01;;;;;;;;;45.00;37.25;;;;;14.81;49.81;101216.31;5089593;27;45789;-91
2022/05/03 07:12:27;;;;;;;;;38.75;33.25;;;;;14.29;49.46;101132.97;5090852;27;45092;-90
2022/05/03 07:15:01;;;;;;;;;48.50;37.25;;;;;14.78;49.95;101224.16;5085156;27;45528;-86
2022/05/03 07:22:54;;;;;;;;;40.75;35.00;;;;;14.49;49.57;101141.47;5094515;28;45074;-81
2022/05/03 07:25:19;;;;;;;;;45.75;37.75;;;;;14.64;50.11;101152.41;5080811;27;45295;-84
2022/05/03 07:27:48;;;;;;;;;43.67;36.00;;;;;14.65;49.37;101152.44;5079043;27;45466;-80
2022/05/03 07:30:14;;;;;;;;;40.25;35.25;;;;;15.14;49.13;101224.19;5089069;27;46369;-81
2022/05/03 07:32:41;;;;;;;;;39.00;34.25;;;;;14.90;49.16;101192.72;5087818;27;45395;-77
2022/05/03 07:35:06;;;;;;;;;40.00;35.00;;;;;14.63;48.88;101150.59;5093066;27;45294;-86
2022/05/03 07:37:32;;;;;;;;;38.00;34.00;;;;;14.99;49.35;101207.94;5091248;27;45435;-84
2022/05/03 07:39:57;;;;;;;;;36.00;31.75;;;;;15.09;49.31;101231.13;5094154;28;45534;-84
2022/05/03 07:42:23;;;;;;;;;38.67;34.00;;;;;14.53;49.40;101135.34;5100592;27;45102;-78
2022/05/03 07:44:48;;;;;;;;;47.75;37.00;;;;;15.06;49.31;101231.03;5094435;27;45079;-84
2022/05/03 07:47:14;;;;;;;;;43.75;35.50;;;;;14.82;49.56;101181.94;5092376;27;45082;-87
2022/05/03 07:49:39;;;;;;;;;39.75;35.50;;;;;14.76;49.41;101165.03;5097478;27;46152;-79
2022/05/03 07:52:06;;;;;;;;;42.00;36.25;;;;;14.79;49.25;101168.66;5096628;27;45509;-83
2022/05/03 07:54:32;;;;;;;;;45.25;35.50;;;;;14.77;49.40;101159.75;5104533;27;45294;-94
2022/05/03 07:56:57;;;;;;;;;45.00;36.25;;;;;14.97;48.95;101192.00;5109468;27;45528;-92
2022/05/03 07:59:25;;;;;;;;;37.25;33.00;;;;;14.70;49.52;101148.16;5098158;27;46762;-92
2022/05/03 08:01:51;;;;;;;;;41.25;34.25;;;;;14.87;49.05;101176.75;5091918;27;45175;-92
2022/05/03 08:04:16;;;;;;;;;41.75;34.75;;;;;15.20;48.99;101242.84;5089836;27;45359;-93
2022/05/03 08:06:42;;;;;;;;;37.50;33.50;;;;;14.51;49.09;101129.16;5094339;27;44865;-92
2022/05/03 08:09:07;;;;;;;;;41.00;34.67;;;;;15.15;48.79;101244.50;5088773;27;45365;-93
2022/05/03 08:11:32;;;;;;;;;41.75;35.75;;;;;14.64;49.07;101169.19;5081562;27;45378;-94
2022/05/03 08:13:58;;;;;;;;;36.75;31.75;;;;;15.11;48.90;101245.28;5086566;28;45270;-94
2022/05/03 08:16:23;;;;;;;;;44.00;37.33;;;;;14.56;48.85;101148.66;5089286;27;45051;-91
2022/05/03 08:18:49;;;;;;;;;35.75;31.00;;;;;14.69;49.23;101185.16;5090642;27;45154;-90
2022/05/03 08:21:15;;;;;;;;;39.25;34.25;;;;;15.00;49.18;101250.31;5084257;27;45492;-93
2022/05/03 08:23:41;;;;;;;;;37.75;32.75;;;;;14.43;49.26;101153.63;5088225;27;45413;-90
2022/05/03 08:26:06;;;;;;;;;42.50;36.00;;;;;14.37;49.22;101152.56;5080599;27;45162;-92
2022/05/03 08:28:32;;;;;;;;;45.00;36.00;;;;;14.92;49.21;101258.06;5081743;28;45852;-90
2022/05/03 08:30:59;;;;;;;;;41.00;35.25;;;;;14.45;49.21;101180.09;5099257;27;45237;-89
2022/05/03 08:33:26;;;;;;;;;39.50;34.50;;;;;14.32;49.18;101163.03;5098483;28;44790;-87
2022/05/03 08:35:51;;;;;;;;;40.75;33.75;;;;;14.39;49.61;101157.06;5090684;27;45322;-90
2022/05/03 08:43:47;;;;;;;;;44.25;36.25;;;;;14.58;49.44;101163.75;5069264;27;45405;-87
2022/05/03 08:46:12;;;;;;;;;36.50;33.75;;;;;15.15;49.62;101249.81;5089387;27;45151;-95
2022/05/03 08:48:40;;;;;;;;;37.00;33.50;;;;;14.63;49.32;101150.59;5067008;27;46126;-93
2022/05/03 08:51:10;;;;;;;;;36.25;32.50;;;;;15.22;49.03;101255.28;5092531;28;45409;-94
2022/05/03 08:53:36;;;;;;;;;41.00;33.75;;;;;15.23;49.02;101246.47;5083998;27;45086;-90
2022/05/03 08:56:02;;;;;;;;;45.00;37.25;;;;;14.82;49.19;101171.34;5094512;27;45108;-93
2022/05/03 08:58:29;;;;;;;;;41.75;34.50;;;;;14.94;49.27;101197.25;5084275;27;45794;-90
2022/05/03 09:00:54;;;;;;;;;32.50;30.00;;;;;15.23;49.21;101227.94;5080698;27;45319;-95
2022/05/03 09:03:20;;;;;;;;;40.75;34.00;;;;;14.94;49.19;101157.53;5084948;27;45340;-92
2022/05/03 09:05:46;;;;;;;;;42.00;35.75;;;;;14.98;49.39;101163.81;5074297;27;44920;-94
2022/05/03 09:08:12;;;;;;;;;40.25;33.75;;;;;15.15;49.07;101173.91;5079938;28;45583;-92
2022/05/03 09:10:38;;;;;;;;;39.50;35.00;;;;;15.13;49.20;101161.50;5087319;28;45051;-95
2022/05/03 09:13:14;;;;;;;;;40.50;33.50;;;;;15.74;49.33;101242.34;5091852;27;45057;-94
2022/05/03 09:15:40;;;;;;;;;38.25;32.75;;;;;15.69;48.81;101217.50;5095852;27;46086;-90
2022/05/03 09:18:05;;;;;;;;;39.00;33.25;;;;;15.61;48.72;101196.09;5084613;27;45560;-89
2022/05/03 09:26:10;;;;;;;;;31.50;29.50;;;;;15.80;47.57;101186.81;5085500;27;45276;-89
2022/05/03 09:28:43;;;;;;;;;34.00;31.00;;;;;16.03;47.63;101210.25;5066429;27;45994;-86
2022/05/03 09:31:08;;;;;;;;;35.50;32.00;;;;;16.08;47.13;101217.44;5066122;28;45930;-83
2022/05/03 09:33:37;;;;;;;;;39.25;33.75;;;;;15.83;46.92;101164.78;5075466;27;45489;-95
2022/05/03 09:36:10;;;;;;;;;35.50;32.25;;;;;15.92;46.80;101165.88;5069375;27;45383;-81
2022/05/03 09:38:49;;;;;;;;;35.50;28.25;;;;;16.43;46.71;101239.31;5068567;27;46360;-90
2022/05/03 09:41:16;;;;;;;;;34.50;30.75;;;;;16.35;46.72;101208.19;5078085;28;45646;-75
2022/05/03 09:44:07;;;;;;;;;34.75;32.00;;;;;16.55;46.58;101235.09;5073118;27;45484;-94
2022/05/03 09:46:54;;;;;;;;;35.50;32.00;;;;;16.61;46.74;101238.78;5075677;27;45588;-93
2022/05/03 09:49:32;;;;;;;;;38.00;33.25;;;;;16.34;46.62;101185.19;5060239;28;46820;-94
2022/05/03 09:51:58;;;;;;;;;38.50;33.75;;;;;16.73;46.47;101246.06;5080896;28;45513;-94
2022/05/03 09:54:23;;;;;;;;;35.75;32.75;;;;;16.79;46.62;101243.53;5084172;28;45723;-94
2022/05/03 09:56:52;;;;;;;;;35.75;30.25;;;;;16.50;46.28;101177.56;5075450;28;45786;-95
2022/05/03 09:59:19;;;;;;;;;32.75;30.50;;;;;16.54;46.50;101166.97;5076587;28;46688;-94
2022/05/03 10:01:45;;;;;;;;;38.00;33.25;;;;;16.49;46.32;101143.00;5085325;27;45395;-94
2022/05/03 10:04:12;;;;;;;;;36.25;33.00;;;;;16.88;46.18;101203.84;5080778;28;45237;-95
2022/05/03 10:06:38;;;;;;;;;35.75;32.50;;;;;16.69;46.08;101159.25;5079108;27;45366;-95
2022/05/03 10:09:04;;;;;;;;;35.75;32.50;;;;;16.83;45.96;101170.13;5073600;27;45253;-93
2022/05/03 10:11:32;;;;;;;;;32.50;30.25;;;;;16.71;45.89;101133.66;5082688;27;45921;-94
2022/05/03 10:13:57;;;;;;;;;33.50;30.25;;;;;16.96;45.76;101150.88;5097751;27;46314;-93
2022/05/03 10:22:01;;;;;;;;;32.25;30.25;;;;;17.12;45.05;101120.13;5065166;28;45421;-91
2022/05/03 10:24:27;;;;;;;;;31.50;30.00;;;;;17.25;44.70;101133.59;5072686;27;45292;-85
2022/05/03 10:26:56;;;;;;;;;31.25;29.50;;;;;17.87;45.18;101219.47;5098448;27;44996;-79
2022/05/03 10:29:25;;;;;;;;;35.00;30.50;;;;;17.77;44.55;101186.56;5089998;27;45802;-76
2022/05/03 10:32:02;;;;;;;;;31.50;29.75;;;;;17.64;43.81;101140.31;5078621;27;45622;-76
2022/05/03 10:34:59;;;;;;;;;33.25;30.00;;;;;18.17;44.13;101208.28;5078205;27;45285;-80
2022/05/03 10:37:28;;;;;;;;;32.50;29.75;;;;;18.25;43.02;101206.63;5080948;27;45645;-96
2022/05/03 10:39:59;;;;;;;;;30.75;29.25;;;;;17.87;42.88;101135.25;5074137;27;46311;-76
2022/05/03 10:42:26;;;;;;;;;29.75;29.50;;;;;17.74;43.19;101098.81;5089317;27;45289;-79
2022/05/03 10:44:57;;;;;;;;;32.50;30.00;;;;;18.50;43.06;101211.31;5078706;27;45899;-94
2022/05/03 10:47:52;;;;;;;;;29.75;27.75;;;;;18.48;42.52;101199.75;5073040;28;45680;-87
2022/05/03 10:50:19;;;;;;;;;30.75;27.25;;;;;18.04;42.67;101093.78;5083524;28;45510;-76
2022/05/03 10:52:54;;;;;;;;;31.75;29.00;;;;;18.73;42.25;101200.91;5081343;27;45567;-77
2022/05/03 10:55:20;;;;;;;;;31.00;28.50;;;;;18.30;41.86;101115.31;5081516;27;45500;-87
2022/05/03 10:58:22;;;;;;;;;29.50;28.00;;;;;18.89;41.98;101201.03;5083399;27;45236;-79
2022/05/03 11:01:10;;;;;;;;;28.25;26.25;;;;;18.96;42.03;101201.06;5085780;27;46627;-89
2022/05/03 11:03:37;;;;;;;;;36.00;31.50;;;;;18.74;41.36;101145.88;5098395;27;45303;-81
2022/05/03 11:06:25;;;;;;;;;31.00;29.75;;;;;19.09;41.72;101204.72;5118867;27;45168;-79
2022/05/03 11:09:05;;;;;;;;;31.25;30.00;;;;;19.15;41.14;101191.44;5117531;27;45303;-85
2022/05/03 11:11:39;;;;;;;;;30.75;29.00;;;;;19.24;41.22;101195.94;5097571;27;46035;-87
2022/05/03 11:14:05;;;;;;;;;30.75;29.50;;;;;18.86;41.10;101100.66;5088196;28;45416;-82
2022/05/03 11:16:37;;;;;;;;;33.50;30.00;;;;;19.27;40.68;101166.66;5072260;27;45737;-93
2022/05/03 11:19:16;;;;;;;;;35.75;31.50;;;;;19.02;40.31;101099.00;5090655;27;45934;-80
2022/05/03 11:21:45;;;;;;;;;36.50;31.00;;;;;19.17;40.68;101114.19;5096005;27;46314;-77
2022/05/03 11:24:44;;;;;;;;;31.25;30.00;;;;;19.70;40.71;101181.09;5099691;27;45672;-81
2022/05/03 11:27:10;;;;;;;;;27.50;27.50;;;;;19.77;40.14;101188.25;5080395;27;45234;-85
2022/05/03 11:29:41;;;;;;;;;27.75;26.00;;;;;19.41;39.80;101110.72;5087628;27;45544;-78
2022/05/03 11:32:07;;;;;;;;;29.00;27.00;;;;;19.45;39.72;101092.09;5092757;27;45388;-83
2022/05/03 11:34:34;;;;;;;;;31.00;28.75;;;;;19.82;39.77;101146.50;5091090;27;45267;-87
2022/05/03 11:37:01;;;;;;;;;30.00;28.75;;;;;20.08;39.28;101169.69;5097051;27;45440;-80
2022/05/03 11:39:27;;;;;;;;;30.25;28.00;;;;;19.92;39.85;101118.06;5098412;27;45021;-95
2022/05/03 11:41:53;;;;;;;;;26.25;25.25;;;;;20.38;39.63;101163.50;5092840;27;45120;-85
2022/05/03 11:44:18;;;;;;;;;31.00;29.00;;;;;20.46;39.38;101166.19;5096452;27;45217;-94
2022/05/03 11:46:45;;;;;;;;;30.00;28.00;;;;;20.49;38.78;101148.44;5093446;27;45466;-94
2022/05/03 11:49:13;;;;;;;;;25.75;24.75;;;;;20.32;39.02;101112.78;5094974;27;45100;-87
2022/05/03 11:57:45;;;;;;;;;28.50;26.50;;;;;20.68;37.84;101130.59;5093624;27;45135;-95
2022/05/03 12:00:15;;;;;;;;;36.00;32.50;;;;;20.50;37.80;101106.59;5095243;27;45135;-92
2022/05/03 12:02:42;;;;;;;;;34.50;31.00;;;;;20.48;38.12;101076.31;5096546;27;45877;-93